Time;durP1;ratioP1;P1;durP2;ratioP2;P2;SDS_P1;SDS_P2;PMS_P1;PMS_P2;Temp;Humidity;BMP_temperature;BMP_pressure;BME280_temperature;BME280_humidity;BME280_pressure;Samples;Min_cycle;Max_cycle;Signal;HPM_P1;HPM_P2
2021/12/01 00:02:21;;;;;;;65.20;24.05;;;9.40;99.90;;;;;;5121887;27;20042;-70
2021/12/01 00:04:46;;;;;;;66.03;24.83;;;9.40;99.90;;;;;;5126091;27;20039;-68
2021/12/01 00:07:12;;;;;;;62.70;23.15;;;9.40;99.90;;;;;;5120144;27;20035;-67
2021/12/01 00:09:38;;;;;;;62.85;24.17;;;9.40;99.90;;;;;;5119576;27;20039;-68
2021/12/01 00:12:03;;;;;;;68.45;24.70;;;9.40;99.90;;;;;;5098204;27;20031;-67
2021/12/01 00:14:29;;;;;;;59.97;23.30;;;9.40;99.90;;;;;;5120972;27;20055;-70
2021/12/01 00:16:54;;;;;;;62.78;24.75;;;9.40;99.90;;;;;;5120933;27;20039;-68
2021/12/01 00:19:20;;;;;;;64.03;22.52;;;9.40;99.90;;;;;;5122955;27;20031;-67
2021/12/01 00:21:46;;;;;;;64.45;22.67;;;9.40;99.90;;;;;;5122970;27;20122;-66
2021/12/01 00:24:11;;;;;;;54.55;23.73;;;9.40;99.90;;;;;;5121370;27;20474;-70
2021/12/01 00:26:37;;;;;;;59.42;22.85;;;9.40;99.90;;;;;;5113551;27;20388;-68
2021/12/01 00:29:02;;;;;;;65.70;24.65;;;9.40;99.90;;;;;;5121428;27;20035;-69
2021/12/01 00:31:28;;;;;;;56.80;23.65;;;9.40;99.90;;;;;;5129165;27;20047;-71
2021/12/01 00:33:53;;;;;;;63.38;23.95;;;9.40;99.90;;;;;;5120532;27;20042;-68
2021/12/01 00:36:19;;;;;;;60.13;23.95;;;9.40;99.90;;;;;;5127271;27;20043;-67
2021/12/01 00:38:45;;;;;;;63.53;24.20;;;9.50;99.90;;;;;;5111866;27;20531;-67
2021/12/01 00:41:12;;;;;;;62.47;24.13;;;9.50;99.90;;;;;;5126259;27;20122;-69
2021/12/01 00:43:39;;;;;;;58.67;23.17;;;9.50;99.90;;;;;;5124916;27;20039;-67
2021/12/01 00:46:19;;;;;;;62.08;23.45;;;9.50;99.90;;;;;;5122561;27;20035;-67
2021/12/01 00:48:45;;;;;;;54.67;22.20;;;9.50;99.90;;;;;;5120636;27;20078;-66
2021/12/01 00:51:10;;;;;;;63.10;22.73;;;9.50;99.90;;;;;;5118690;27;20071;-67
2021/12/01 00:53:37;;;;;;;61.83;22.33;;;9.50;99.90;;;;;;5121238;27;20035;-67
2021/12/01 00:56:03;;;;;;;60.47;23.50;;;9.50;99.90;;;;;;5118228;27;20046;-67
2021/12/01 00:58:29;;;;;;;58.53;21.58;;;9.50;99.90;;;;;;5122076;27;20035;-66
2021/12/01 01:00:55;;;;;;;57.00;21.45;;;9.50;99.90;;;;;;5113218;27;20031;-67
2021/12/01 01:03:21;;;;;;;54.55;21.50;;;9.50;99.90;;;;;;5125350;27;20027;-70
2021/12/01 01:05:47;;;;;;;56.45;21.33;;;9.50;99.90;;;;;;5120561;27;20547;-68
2021/12/01 01:08:15;;;;;;;52.97;20.13;;;9.50;99.90;;;;;;5116107;27;20039;-71
2021/12/01 01:18:43;;;;;;;39.80;15.43;;;9.50;99.90;;;;;;5117922;27;20470;-71
2021/12/01 01:21:10;;;;;;;38.08;15.02;;;9.50;99.90;;;;;;5123348;27;20039;-68
2021/12/01 01:23:36;;;;;;;36.97;14.00;;;9.60;99.90;;;;;;5115936;27;20063;-67
2021/12/01 01:26:06;;;;;;;36.55;14.40;;;9.60;99.90;;;;;;5119056;27;20043;-67
2021/12/01 01:28:32;;;;;;;41.05;14.15;;;9.50;99.90;;;;;;5116546;28;20488;-70
2021/12/01 01:30:58;;;;;;;33.03;13.32;;;9.60;99.90;;;;;;5117025;28;20062;-66
2021/12/01 01:33:24;;;;;;;34.30;12.98;;;9.60;99.90;;;;;;5097058;28;20038;-69
2021/12/01 01:35:50;;;;;;;27.70;11.43;;;9.60;99.90;;;;;;5114845;28;20043;-67
2021/12/01 01:38:17;;;;;;;31.65;11.80;;;9.60;99.90;;;;;;5117729;28;20042;-67
2021/12/01 01:40:43;;;;;;;24.15;10.23;;;9.60;99.90;;;;;;5116244;28;20416;-67
2021/12/01 01:43:09;;;;;;;28.20;10.73;;;9.60;99.90;;;;;;5119502;28;20129;-70
2021/12/01 01:45:34;;;;;;;29.67;10.98;;;9.60;99.90;;;;;;5119828;28;20039;-68
2021/12/01 01:48:05;;;;;;;27.80;11.18;;;9.60;99.90;;;;;;5119784;28;20088;-70
2021/12/01 01:50:38;;;;;;;31.10;11.18;;;9.60;99.90;;;;;;5116735;28;20051;-67
2021/12/01 01:53:13;;;;;;;26.90;11.27;;;9.60;99.90;;;;;;5097877;28;20489;-70
2021/12/01 01:55:40;;;;;;;23.52;10.27;;;9.60;99.90;;;;;;5121251;28;20039;-69
2021/12/01 01:58:07;;;;;;;24.98;9.93;;;9.60;99.90;;;;;;5115695;28;20058;-69
2021/12/01 02:00:40;;;;;;;24.95;10.00;;;9.70;99.90;;;;;;5123609;27;20400;-68
2021/12/01 02:03:05;;;;;;;21.77;9.77;;;9.70;99.90;;;;;;5120389;27;20047;-68
2021/12/01 02:05:37;;;;;;;25.67;10.27;;;9.70;99.90;;;;;;5118408;27;20035;-68
2021/12/01 02:08:02;;;;;;;22.13;9.77;;;9.70;99.90;;;;;;5125412;27;20035;-68
2021/12/01 02:10:28;;;;;;;29.17;10.70;;;9.70;99.90;;;;;;5119380;27;20050;-70
2021/12/01 02:12:53;;;;;;;25.33;10.40;;;9.70;99.90;;;;;;5118406;27;20046;-69
2021/12/01 02:15:19;;;;;;;23.52;9.82;;;9.70;99.90;;;;;;5119130;27;20413;-68
2021/12/01 02:17:45;;;;;;;22.02;9.55;;;9.80;99.90;;;;;;5122465;27;20420;-69
2021/12/01 02:20:16;;;;;;;24.55;9.63;;;9.70;99.90;;;;;;5125494;27;20043;-69
2021/12/01 02:22:41;;;;;;;21.02;9.93;;;9.80;99.90;;;;;;5129882;27;20045;-69
2021/12/01 02:25:07;;;;;;;22.48;9.65;;;9.80;99.90;;;;;;5108853;27;20038;-68
2021/12/01 02:27:32;;;;;;;26.40;10.50;;;9.80;99.90;;;;;;5100473;27;20460;-71
2021/12/01 02:29:58;;;;;;;24.65;10.05;;;9.80;99.90;;;;;;5117523;27;20145;-68
2021/12/01 02:32:23;;;;;;;25.42;10.55;;;9.80;99.90;;;;;;5116598;27;20034;-70
2021/12/01 02:34:49;;;;;;;24.25;9.65;;;9.80;99.90;;;;;;5105662;27;20049;-67
2021/12/01 02:37:15;;;;;;;20.15;8.35;;;9.80;99.90;;;;;;5129627;27;20533;-69
2021/12/01 02:39:40;;;;;;;24.15;9.18;;;9.80;99.90;;;;;;5121256;27;20072;-71
2021/12/01 02:42:08;;;;;;;20.02;8.88;;;9.80;99.90;;;;;;5120714;27;20057;-69
2021/12/01 02:44:35;;;;;;;20.05;8.05;;;9.80;99.90;;;;;;5123096;27;20110;-69
2021/12/01 02:47:02;;;;;;;17.00;8.50;;;9.80;99.90;;;;;;5116209;27;20039;-66
2021/12/01 02:49:28;;;;;;;20.88;8.57;;;9.80;99.90;;;;;;5125478;27;20043;-68
2021/12/01 02:51:56;;;;;;;16.30;6.35;;;9.90;99.90;;;;;;5122037;27;20050;-69
2021/12/01 02:54:23;;;;;;;17.00;6.15;;;9.80;99.90;;;;;;5109072;27;20052;-68
2021/12/01 02:56:50;;;;;;;14.50;5.78;;;9.90;99.90;;;;;;5125961;27;20167;-66
2021/12/01 02:59:17;;;;;;;11.15;4.82;;;9.80;99.90;;;;;;5117319;27;20035;-67
2021/12/01 03:01:44;;;;;;;15.30;5.00;;;9.80;99.90;;;;;;5119994;27;20034;-67
2021/12/01 03:04:10;;;;;;;11.05;4.85;;;9.90;99.90;;;;;;5103356;27;20527;-68
2021/12/01 03:06:36;;;;;;;13.48;4.75;;;9.90;99.90;;;;;;5123441;27;20027;-68
2021/12/01 03:09:05;;;;;;;12.73;4.25;;;9.90;99.90;;;;;;5124400;27;20042;-70
2021/12/01 03:11:31;;;;;;;10.23;3.22;;;9.90;99.90;;;;;;5124164;27;20521;-70
2021/12/01 03:13:56;;;;;;;11.07;3.70;;;9.90;99.90;;;;;;5116039;27;20129;-69
2021/12/01 03:16:23;;;;;;;10.48;3.55;;;9.90;99.90;;;;;;5116175;27;20053;-70
2021/12/01 03:18:48;;;;;;;15.88;3.55;;;10.00;99.90;;;;;;5115960;27;20130;-69
2021/12/01 03:21:15;;;;;;;12.57;3.47;;;9.90;99.90;;;;;;5115857;27;20130;-66
2021/12/01 03:23:41;;;;;;;12.23;3.88;;;10.00;99.90;;;;;;5132341;27;20125;-70
2021/12/01 03:26:07;;;;;;;12.60;3.90;;;10.00;99.90;;;;;;5116050;27;20039;-67
2021/12/01 03:28:33;;;;;;;12.32;3.13;;;10.00;99.90;;;;;;5116208;27;20067;-69
2021/12/01 03:30:59;;;;;;;9.10;3.38;;;9.90;99.90;;;;;;5116054;27;20361;-69
2021/12/01 03:33:25;;;;;;;7.35;3.10;;;9.90;99.90;;;;;;5123389;27;20070;-67
2021/12/01 03:35:53;;;;;;;6.93;2.92;;;9.90;99.90;;;;;;5116354;27;20051;-67
2021/12/01 03:38:23;;;;;;;9.13;3.20;;;9.90;99.90;;;;;;5126676;27;20046;-68
2021/12/01 03:40:49;;;;;;;9.13;3.08;;;9.90;99.90;;;;;;5113223;27;20118;-69
2021/12/01 03:43:15;;;;;;;8.77;3.30;;;9.90;99.90;;;;;;5122025;27;20126;-70
2021/12/01 03:45:41;;;;;;;7.00;3.33;;;9.90;99.90;;;;;;5114341;27;20065;-69
2021/12/01 03:48:07;;;;;;;9.40;3.63;;;10.00;99.90;;;;;;5115490;27;20039;-69
2021/12/01 03:50:34;;;;;;;11.38;3.97;;;9.90;99.90;;;;;;5114012;27;20409;-67
2021/12/01 03:52:59;;;;;;;9.27;4.18;;;9.90;99.90;;;;;;5114295;27;20092;-70
2021/12/01 03:55:25;;;;;;;8.07;3.63;;;9.90;99.90;;;;;;5114168;27;20039;-69
2021/12/01 03:57:50;;;;;;;10.52;4.22;;;9.90;99.90;;;;;;5114775;27;20091;-67
2021/12/01 04:00:17;;;;;;;10.50;4.28;;;9.90;99.90;;;;;;5113794;27;20047;-70
2021/12/01 04:02:43;;;;;;;9.90;4.70;;;9.80;99.90;;;;;;5098951;27;20035;-67
2021/12/01 04:05:10;;;;;;;13.30;4.47;;;9.80;99.90;;;;;;5114314;27;20058;-67
2021/12/01 04:07:36;;;;;;;11.20;4.15;;;9.80;99.90;;;;;;5114031;27;20031;-67
2021/12/01 04:10:05;;;;;;;9.45;4.13;;;9.70;99.90;;;;;;5114451;27;20050;-68
2021/12/01 04:12:30;;;;;;;9.65;4.13;;;9.70;99.90;;;;;;5116246;27;20087;-69
2021/12/01 04:14:56;;;;;;;11.10;4.22;;;9.70;99.90;;;;;;5114136;27;20505;-66
2021/12/01 04:17:21;;;;;;;10.65;4.57;;;9.70;99.90;;;;;;5111351;27;20032;-66
2021/12/01 04:19:47;;;;;;;10.23;3.75;;;9.70;99.90;;;;;;5113960;27;20080;-70
2021/12/01 04:22:13;;;;;;;8.68;3.67;;;9.70;99.90;;;;;;5114434;27;20358;-70
2021/12/01 04:24:38;;;;;;;8.88;3.65;;;9.70;99.90;;;;;;5114705;27;20042;-67
2021/12/01 04:27:05;;;;;;;10.68;3.83;;;9.70;99.90;;;;;;5114944;27;20031;-68
2021/12/01 04:29:31;;;;;;;8.52;3.42;;;9.70;99.90;;;;;;5122851;27;20088;-72
2021/12/01 04:31:56;;;;;;;8.68;3.30;;;9.70;99.90;;;;;;5113912;27;20039;-66
2021/12/01 04:34:22;;;;;;;7.03;3.40;;;9.70;99.90;;;;;;5114016;27;20053;-67
2021/12/01 04:36:50;;;;;;;6.90;2.83;;;9.60;99.90;;;;;;5112965;27;20062;-67
2021/12/01 04:39:17;;;;;;;5.65;2.88;;;9.60;99.90;;;;;;5113495;27;20550;-68
2021/12/01 04:41:55;;;;;;;9.38;3.95;;;9.60;99.90;;;;;;5113641;27;20493;-68
2021/12/01 04:44:22;;;;;;;7.53;3.45;;;9.60;99.90;;;;;;5113579;27;20066;-68
2021/12/01 04:46:49;;;;;;;6.03;3.28;;;9.60;99.90;;;;;;5114173;27;20035;-69
2021/12/01 04:49:18;;;;;;;6.78;3.38;;;9.50;99.90;;;;;;5124563;27;20047;-67
2021/12/01 04:51:47;;;;;;;6.90;3.40;;;9.50;99.90;;;;;;5113198;27;20050;-66
2021/12/01 04:54:13;;;;;;;6.80;3.30;;;9.50;99.90;;;;;;5113584;27;20047;-67
2021/12/01 04:56:39;;;;;;;6.75;3.78;;;9.50;99.90;;;;;;5112094;27;20485;-66
2021/12/01 04:59:06;;;;;;;8.77;4.00;;;9.50;99.90;;;;;;5113595;27;20041;-68
2021/12/01 05:01:34;;;;;;;8.73;3.38;;;9.50;99.90;;;;;;5113597;27;20041;-68
2021/12/01 05:04:00;;;;;;;8.23;3.83;;;9.50;99.90;;;;;;5113303;27;20072;-69
2021/12/01 05:06:25;;;;;;;7.97;3.97;;;9.40;99.90;;;;;;5112991;27;20039;-67
2021/12/01 05:08:51;;;;;;;10.25;4.32;;;9.40;99.90;;;;;;5113708;27;20133;-69
2021/12/01 05:11:16;;;;;;;7.93;3.70;;;9.40;99.90;;;;;;5112745;27;20047;-71
2021/12/01 05:13:42;;;;;;;7.80;4.53;;;9.40;99.90;;;;;;5105011;27;20133;-67
2021/12/01 05:16:08;;;;;;;8.88;4.70;;;9.40;99.90;;;;;;5113131;27;20166;-68
2021/12/01 05:18:33;;;;;;;11.15;5.00;;;9.40;99.90;;;;;;5113118;27;20561;-68
2021/12/01 05:20:59;;;;;;;8.63;4.95;;;9.30;99.90;;;;;;5112905;27;20049;-68
2021/12/01 05:23:24;;;;;;;8.77;4.80;;;9.30;99.90;;;;;;5113316;27;20521;-68
2021/12/01 05:25:50;;;;;;;9.38;4.75;;;9.30;99.90;;;;;;5115632;27;20083;-70
2021/12/01 05:28:15;;;;;;;8.40;5.03;;;9.30;99.90;;;;;;5113151;28;20039;-68
2021/12/01 05:30:41;;;;;;;9.25;5.10;;;9.30;99.90;;;;;;5112935;28;20039;-68
2021/12/01 05:33:10;;;;;;;7.88;4.90;;;9.30;99.90;;;;;;5112299;28;20508;-68
2021/12/01 05:35:36;;;;;;;9.50;5.40;;;9.30;99.90;;;;;;5115692;27;20122;-70
2021/12/01 05:38:04;;;;;;;8.80;5.70;;;9.20;99.90;;;;;;5118085;27;20066;-66
2021/12/01 05:40:30;;;;;;;9.27;5.30;;;9.20;99.90;;;;;;5100545;27;20114;-68
2021/12/01 05:42:56;;;;;;;9.63;5.85;;;9.20;99.90;;;;;;5117862;27;20050;-66
2021/12/01 05:45:21;;;;;;;10.43;5.50;;;9.20;99.90;;;;;;5117364;27;20047;-68
2021/12/01 05:47:47;;;;;;;10.07;5.35;;;9.20;99.90;;;;;;5116664;27;20397;-69
2021/12/01 05:50:12;;;;;;;11.00;5.20;;;9.10;99.90;;;;;;5116163;27;20355;-69
2021/12/01 05:52:38;;;;;;;10.00;5.55;;;9.10;99.90;;;;;;5116432;27;20123;-71
2021/12/01 05:55:05;;;;;;;9.88;4.55;;;9.10;99.90;;;;;;5117483;27;20049;-71
2021/12/01 05:57:31;;;;;;;8.27;4.38;;;9.10;99.90;;;;;;5117052;27;20039;-69
2021/12/01 05:59:59;;;;;;;7.50;3.92;;;9.10;99.90;;;;;;5121355;27;20489;-68
2021/12/01 06:02:25;;;;;;;7.03;3.80;;;9.00;99.90;;;;;;5116490;27;20047;-68
2021/12/01 06:04:51;;;;;;;9.02;3.83;;;9.00;99.90;;;;;;5117410;27;20031;-70
2021/12/01 06:07:17;;;;;;;5.80;3.50;;;9.00;99.90;;;;;;5116855;27;20047;-68
2021/12/01 06:09:43;;;;;;;4.68;2.60;;;9.00;99.90;;;;;;5129320;27;20508;-69
2021/12/01 06:12:11;;;;;;;4.47;2.30;;;9.00;99.90;;;;;;5117537;27;20100;-67
2021/12/01 06:14:38;;;;;;;5.63;2.78;;;8.90;99.90;;;;;;5117120;27;20051;-67
2021/12/01 06:17:03;;;;;;;5.13;2.40;;;8.90;99.90;;;;;;5117566;27;20092;-68
2021/12/01 06:19:29;;;;;;;5.45;2.60;;;8.90;99.90;;;;;;5116810;27;20474;-69
2021/12/01 06:21:55;;;;;;;4.82;2.72;;;8.90;99.90;;;;;;5100274;27;20478;-68
2021/12/01 06:24:20;;;;;;;5.82;2.80;;;8.90;99.90;;;;;;5117142;27;20027;-69
2021/12/01 06:26:46;;;;;;;4.50;2.60;;;8.90;99.90;;;;;;5116536;27;20039;-68
2021/12/01 06:29:11;;;;;;;4.75;2.80;;;8.80;99.90;;;;;;5116819;27;20035;-69
2021/12/01 06:31:37;;;;;;;5.05;2.50;;;8.80;99.90;;;;;;5117120;27;20103;-69
2021/12/01 06:34:02;;;;;;;3.92;2.47;;;8.90;99.90;;;;;;5117012;27;20050;-68
2021/12/01 06:36:28;;;;;;;5.40;2.83;;;8.80;99.90;;;;;;5116883;27;20047;-69
2021/12/01 06:38:54;;;;;;;4.28;2.47;;;8.80;99.90;;;;;;5114750;27;20482;-70
2021/12/01 06:41:19;;;;;;;4.10;2.53;;;8.80;99.90;;;;;;5104953;27;20031;-67
2021/12/01 06:43:45;;;;;;;5.63;2.55;;;8.80;99.90;;;;;;5116885;27;20027;-67
2021/12/01 06:46:11;;;;;;;4.18;2.60;;;8.80;99.90;;;;;;5116523;27;20054;-67
2021/12/01 06:48:36;;;;;;;6.15;3.00;;;8.80;99.90;;;;;;5116357;27;20487;-69
2021/12/01 06:51:02;;;;;;;6.93;3.10;;;8.80;99.90;;;;;;5116019;27;20220;-66
2021/12/01 06:53:29;;;;;;;4.97;2.78;;;8.80;99.90;;;;;;5116628;27;20035;-68
2021/12/01 06:55:55;;;;;;;5.05;3.15;;;8.80;99.90;;;;;;5115940;27;20118;-70
2021/12/01 06:58:20;;;;;;;5.78;3.25;;;8.70;99.90;;;;;;5121549;27;20147;-68
2021/12/01 07:00:46;;;;;;;7.15;3.35;;;8.70;99.90;;;;;;5116048;27;20043;-68
2021/12/01 07:03:11;;;;;;;7.97;3.40;;;8.70;99.90;;;;;;5116515;27;20033;-67
2021/12/01 07:05:37;;;;;;;6.70;3.28;;;8.70;99.90;;;;;;5116256;27;20062;-67
2021/12/01 07:08:04;;;;;;;7.38;3.60;;;8.70;99.90;;;;;;5116440;27;20134;-68
2021/12/01 07:10:29;;;;;;;6.07;3.42;;;8.70;99.90;;;;;;5123345;27;20039;-68
2021/12/01 07:12:55;;;;;;;6.75;3.72;;;8.70;99.90;;;;;;5115626;27;20035;-70
2021/12/01 07:15:21;;;;;;;8.50;3.97;;;8.70;99.90;;;;;;5115974;27;20103;-69
2021/12/01 07:17:46;;;;;;;7.68;3.80;;;8.70;99.90;;;;;;5115884;27;20031;-67
2021/12/01 07:20:13;;;;;;;8.18;4.18;;;8.70;99.90;;;;;;5120260;27;20038;-70
2021/12/01 07:22:39;;;;;;;7.00;4.10;;;8.70;99.90;;;;;;5099482;27;20092;-66
2021/12/01 07:25:06;;;;;;;9.98;4.82;;;8.70;99.90;;;;;;5098875;27;20419;-65
2021/12/01 07:27:31;;;;;;;8.55;4.53;;;8.80;99.90;;;;;;5098896;27;20293;-68
2021/12/01 07:29:57;;;;;;;9.70;5.18;;;8.80;99.90;;;;;;5115976;27;20462;-69
2021/12/01 07:32:23;;;;;;;11.02;5.13;;;8.80;99.90;;;;;;5115509;27;20043;-66
2021/12/01 07:34:48;;;;;;;11.80;5.15;;;8.80;99.90;;;;;;5115123;27;20136;-67
2021/12/01 07:37:18;;;;;;;10.75;5.38;;;8.80;99.90;;;;;;5115911;27;20043;-68
2021/12/01 07:39:45;;;;;;;10.43;5.25;;;8.80;99.90;;;;;;5098831;27;20087;-68
2021/12/01 07:42:12;;;;;;;12.10;5.22;;;8.80;99.90;;;;;;5098267;27;20043;-68
2021/12/01 07:44:37;;;;;;;8.95;5.10;;;8.80;99.90;;;;;;5115816;27;20035;-67
2021/12/01 07:47:04;;;;;;;9.43;5.00;;;8.80;99.90;;;;;;5115348;27;20109;-67
2021/12/01 07:49:30;;;;;;;9.23;4.95;;;8.80;99.90;;;;;;5115407;27;20043;-70
2021/12/01 07:51:55;;;;;;;9.73;5.32;;;8.90;99.90;;;;;;5116382;27;20178;-69
2021/12/01 07:54:21;;;;;;;10.27;5.07;;;8.90;99.90;;;;;;5115556;27;20118;-70
2021/12/01 07:56:47;;;;;;;13.43;5.20;;;8.90;99.90;;;;;;5114157;27;20080;-68
2021/12/01 07:59:15;;;;;;;9.50;5.07;;;9.00;99.90;;;;;;5123458;27;20035;-70
2021/12/01 08:01:42;;;;;;;12.63;5.97;;;9.00;99.90;;;;;;5123253;27;20035;-70
2021/12/01 08:04:08;;;;;;;11.20;5.53;;;9.00;99.90;;;;;;5115399;27;20118;-69
2021/12/01 08:06:35;;;;;;;11.35;6.10;;;9.00;99.90;;;;;;5115807;27;20126;-67
2021/12/01 08:09:01;;;;;;;12.45;6.50;;;9.00;99.90;;;;;;5115254;27;20078;-68
2021/12/01 08:11:27;;;;;;;12.27;5.75;;;9.10;99.90;;;;;;5122717;27;20078;-70
2021/12/01 08:13:53;;;;;;;11.38;6.15;;;9.10;99.90;;;;;;5124126;27;20042;-69
2021/12/01 08:16:18;;;;;;;11.02;5.47;;;9.10;99.90;;;;;;5114426;27;20108;-65
2021/12/01 08:18:44;;;;;;;11.20;5.70;;;9.10;99.90;;;;;;5116461;27;20039;-68
2021/12/01 08:21:10;;;;;;;11.15;5.85;;;9.10;99.90;;;;;;5119125;27;20041;-67
2021/12/01 08:23:35;;;;;;;12.82;5.78;;;9.10;99.90;;;;;;5114596;27;20070;-69
2021/12/01 08:26:01;;;;;;;11.95;5.60;;;9.10;99.90;;;;;;5114138;27;20039;-67
2021/12/01 08:28:26;;;;;;;12.50;5.88;;;9.10;99.90;;;;;;5095197;27;20487;-69
2021/12/01 08:30:52;;;;;;;12.05;5.95;;;9.10;99.90;;;;;;5105310;28;20447;-70
2021/12/01 08:33:17;;;;;;;13.38;6.07;;;9.10;99.90;;;;;;5093743;28;20042;-68
2021/12/01 08:35:43;;;;;;;13.38;5.95;;;9.10;99.90;;;;;;5105958;27;20529;-67
2021/12/01 08:38:08;;;;;;;10.75;4.82;;;9.10;99.90;;;;;;5114303;27;20176;-69
2021/12/01 08:40:34;;;;;;;10.63;4.90;;;9.10;99.90;;;;;;5118673;27;20494;-68
2021/12/01 08:43:00;;;;;;;10.07;4.07;;;9.10;99.90;;;;;;5094159;27;20040;-69
2021/12/01 08:45:25;;;;;;;11.63;3.38;;;9.10;99.90;;;;;;5131012;27;20054;-66
2021/12/01 08:47:51;;;;;;;11.32;3.70;;;9.20;99.90;;;;;;5114046;27;20046;-67
2021/12/01 08:50:17;;;;;;;10.80;3.42;;;9.20;99.90;;;;;;5113636;27;20031;-67
2021/12/01 08:52:44;;;;;;;12.55;3.30;;;9.20;99.90;;;;;;5113835;27;20044;-69
2021/12/01 08:55:11;;;;;;;14.98;3.35;;;9.10;99.90;;;;;;5117982;27;20039;-69
2021/12/01 08:57:38;;;;;;;13.50;3.60;;;9.10;99.90;;;;;;5113815;27;20028;-67
2021/12/01 09:00:06;;;;;;;14.30;3.92;;;9.10;99.90;;;;;;5114913;27;20481;-67
2021/12/01 09:02:31;;;;;;;15.70;4.57;;;9.10;99.90;;;;;;5114143;28;20477;-68
2021/12/01 09:04:57;;;;;;;14.82;4.03;;;9.10;99.90;;;;;;5113281;27;20105;-66
2021/12/01 09:07:23;;;;;;;19.35;3.33;;;9.10;99.90;;;;;;5118240;27;20129;-65
2021/12/01 09:09:48;;;;;;;13.13;2.70;;;9.00;99.90;;;;;;5103218;27;20609;-68
2021/12/01 09:12:14;;;;;;;12.23;2.95;;;9.00;99.90;;;;;;5113557;27;20049;-71
2021/12/01 09:14:41;;;;;;;21.85;3.15;;;9.10;99.90;;;;;;5113585;27;20043;-70
2021/12/01 09:17:09;;;;;;;19.85;3.40;;;9.20;99.90;;;;;;5113342;27;20087;-68
2021/12/01 09:19:35;;;;;;;15.70;2.85;;;9.20;99.90;;;;;;5112942;27;20478;-72
2021/12/01 09:22:01;;;;;;;16.80;3.10;;;9.20;99.90;;;;;;5113768;27;20049;-67
2021/12/01 09:24:26;;;;;;;19.55;3.35;;;9.20;99.90;;;;;;5122547;28;20035;-68
2021/12/01 09:26:52;;;;;;;14.07;2.80;;;9.20;99.90;;;;;;5113434;28;20074;-69
2021/12/01 09:29:18;;;;;;;17.90;2.58;;;9.10;99.90;;;;;;5113058;28;20031;-69
2021/12/01 09:31:43;;;;;;;15.38;3.05;;;9.20;99.90;;;;;;5114652;28;20405;-68
2021/12/01 09:34:09;;;;;;;10.68;2.33;;;9.20;99.90;;;;;;5115432;28;20046;-69
2021/12/01 09:36:34;;;;;;;13.95;2.42;;;9.10;99.90;;;;;;5096546;28;20051;-67
2021/12/01 09:39:00;;;;;;;21.48;3.08;;;9.00;99.90;;;;;;5113066;28;20062;-69
2021/12/01 09:41:26;;;;;;;18.15;3.20;;;9.10;99.90;;;;;;5096026;28;20027;-69
2021/12/01 09:43:52;;;;;;;14.68;2.60;;;9.00;99.90;;;;;;5115182;28;20500;-69
2021/12/01 09:46:18;;;;;;;13.75;2.70;;;9.00;99.90;;;;;;5122387;28;20039;-67
2021/12/01 09:48:44;;;;;;;20.10;2.40;;;9.00;99.90;;;;;;5117627;28;20043;-68
2021/12/01 09:51:16;;;;;;;9.85;2.22;;;9.00;99.90;;;;;;5103987;28;20517;-68
2021/12/01 09:53:43;;;;;;;13.95;2.05;;;8.80;99.90;;;;;;5103832;28;20050;-68
2021/12/01 09:56:09;;;;;;;15.82;2.90;;;8.80;99.90;;;;;;5109252;28;20084;-67
2021/12/01 09:58:35;;;;;;;15.25;2.10;;;8.70;99.90;;;;;;5112763;28;20035;-66
2021/12/01 10:01:11;;;;;;;14.02;2.20;;;8.70;99.90;;;;;;5112834;28;20041;-66
2021/12/01 10:03:36;;;;;;;14.18;2.10;;;8.80;99.90;;;;;;5112680;28;20038;-66
2021/12/01 10:06:14;;;;;;;19.33;2.25;;;8.80;99.90;;;;;;5112784;28;20046;-67
2021/12/01 10:08:45;;;;;;;14.18;1.73;;;8.80;99.90;;;;;;5114076;28;20039;-67
2021/12/01 10:11:13;;;;;;;10.63;1.88;;;8.80;99.90;;;;;;5110809;28;20043;-66
2021/12/01 10:13:42;;;;;;;17.13;2.20;;;8.90;99.90;;;;;;5115239;28;20130;-69
2021/12/01 10:16:11;;;;;;;18.25;2.80;;;8.80;99.90;;;;;;5095642;28;20047;-68
2021/12/01 10:18:51;;;;;;;13.75;1.90;;;8.80;99.90;;;;;;5113123;28;20054;-68
2021/12/01 10:21:21;;;;;;;17.65;2.45;;;8.80;99.90;;;;;;5113742;27;20058;-68
2021/12/01 10:23:48;;;;;;;21.88;2.90;;;8.80;99.90;;;;;;5126884;27;20031;-66
2021/12/01 10:26:20;;;;;;;16.92;2.45;;;8.80;99.90;;;;;;5102623;27;20043;-67
2021/12/01 10:28:52;;;;;;;16.60;2.45;;;8.90;99.90;;;;;;5116152;27;20464;-67
2021/12/01 10:31:30;;;;;;;15.63;2.00;;;8.90;99.90;;;;;;5116964;27;20435;-68
2021/12/01 10:34:31;;;;;;;14.35;1.98;;;9.00;99.90;;;;;;5112681;27;20494;-66
2021/12/01 10:37:06;;;;;;;16.50;2.63;;;9.10;99.90;;;;;;5106469;27;20501;-68
2021/12/01 10:39:32;;;;;;;13.23;2.13;;;9.00;99.90;;;;;;5120916;27;20115;-69
2021/12/01 10:42:04;;;;;;;16.17;2.20;;;9.00;99.90;;;;;;5116879;27;20460;-67
2021/12/01 10:44:30;;;;;;;;;;;9.00;99.90;;;;;;5111771;28;20071;-68
2021/12/01 10:46:55;;;;;;;19.60;2.38;;;9.00;99.90;;;;;;5114686;27;20406;-69
2021/12/01 10:49:34;;;;;;;16.17;2.85;;;9.00;99.90;;;;;;5097166;27;20486;-67
2021/12/01 10:52:00;;;;;;;13.52;1.80;;;9.00;99.90;;;;;;5111578;27;20042;-68
2021/12/01 10:54:26;;;;;;;18.65;2.88;;;9.00;99.90;;;;;;5117010;27;20031;-68
2021/12/01 10:57:21;;;;;;;14.90;2.70;;;9.00;99.90;;;;;;5120080;27;20049;-68
2021/12/01 10:59:50;;;;;;;12.73;2.00;;;9.00;99.90;;;;;;5127899;27;20059;-68
2021/12/01 11:02:18;;;;;;;17.63;2.15;;;9.00;99.90;;;;;;5121676;27;20027;-66
2021/12/01 11:04:52;;;;;;;12.95;2.13;;;9.00;99.90;;;;;;5103759;27;20388;-67
2021/12/01 11:07:32;;;;;;;21.08;2.60;;;9.00;99.90;;;;;;5120904;27;20039;-68
2021/12/01 11:10:19;;;;;;;17.45;3.17;;;9.00;99.90;;;;;;5121342;27;20039;-66
2021/12/01 11:12:55;;;;;;;16.85;2.65;;;9.00;99.90;;;;;;5117410;27;20096;-69
2021/12/01 11:15:22;;;;;;;20.95;2.50;;;9.10;99.90;;;;;;5127304;27;20047;-69
2021/12/01 11:17:49;;;;;;;26.60;3.33;;;9.10;99.90;;;;;;5120140;27;20035;-68
2021/12/01 11:20:37;;;;;;;20.50;2.90;;;9.10;99.90;;;;;;5100348;27;20118;-68
2021/12/01 11:23:12;;;;;;;26.67;3.10;;;9.10;99.90;;;;;;5130084;27;20058;-70
2021/12/01 11:25:38;;;;;;;28.58;3.97;;;9.10;99.90;;;;;;5124341;27;20135;-66
2021/12/01 11:28:08;;;;;;;26.73;4.50;;;9.10;99.90;;;;;;5120065;27;20034;-68
2021/12/01 11:30:34;;;;;;;26.27;3.85;;;9.10;99.90;;;;;;5119417;27;20111;-68
2021/12/01 11:32:59;;;;;;;25.33;3.45;;;9.10;99.90;;;;;;5120134;27;20443;-69
2021/12/01 11:35:26;;;;;;;23.48;4.05;;;9.00;99.90;;;;;;5115411;27;20035;-68
2021/12/01 11:37:55;;;;;;;27.58;3.83;;;9.10;99.90;;;;;;5102091;27;20383;-69
2021/12/01 11:40:23;;;;;;;24.45;3.72;;;9.00;99.90;;;;;;5119454;27;20073;-70
2021/12/01 11:42:48;;;;;;;23.15;3.97;;;9.00;99.90;;;;;;5120872;27;20039;-70
2021/12/01 11:45:15;;;;;;;29.30;3.97;;;9.10;99.90;;;;;;5125365;27;20037;-70
2021/12/01 11:47:46;;;;;;;24.05;4.22;;;9.10;99.90;;;;;;5123912;27;20050;-69
2021/12/01 11:50:20;;;;;;;18.98;3.72;;;9.10;99.90;;;;;;5127003;27;20027;-67
2021/12/01 11:53:04;;;;;;;28.55;4.03;;;9.10;99.90;;;;;;5123307;27;20030;-67
2021/12/01 11:55:53;;;;;;;32.17;4.57;;;9.10;99.90;;;;;;5114261;27;20047;-68
2021/12/01 11:58:44;;;;;;;22.30;4.35;;;9.10;99.90;;;;;;5119072;27;20043;-69
2021/12/01 12:01:21;;;;;;;28.48;4.32;;;9.10;99.90;;;;;;5119382;27;20066;-66
2021/12/01 12:04:07;;;;;;;23.55;3.85;;;9.00;99.90;;;;;;5113999;27;20168;-68
2021/12/01 12:06:46;;;;;;;19.27;4.28;;;9.00;99.90;;;;;;5122416;27;20503;-69
2021/12/01 12:09:15;;;;;;;23.73;3.80;;;9.10;99.90;;;;;;5117400;27;20099;-69
2021/12/01 12:11:52;;;;;;;25.48;4.00;;;9.10;99.90;;;;;;5120873;27;20043;-66
2021/12/01 12:14:24;;;;;;;22.60;3.70;;;9.00;99.90;;;;;;5126938;27;20050;-67
2021/12/01 12:17:06;;;;;;;21.95;4.35;;;9.10;99.90;;;;;;5109281;27;20216;-68
2021/12/01 12:19:44;;;;;;;29.52;4.57;;;8.70;99.90;;;;;;5125063;27;20134;-69
2021/12/01 12:22:12;;;;;;;27.00;3.83;;;8.60;99.90;;;;;;5125218;27;20043;-68
2021/12/01 12:24:50;;;;;;;29.67;4.30;;;8.50;99.90;;;;;;5100074;27;20080;-68
2021/12/01 12:27:35;;;;;;;19.00;3.13;;;8.50;99.90;;;;;;5108542;27;20039;-68
2021/12/01 12:30:06;;;;;;;15.65;3.13;;;8.50;99.90;;;;;;5113964;27;20035;-68
2021/12/01 12:32:33;;;;;;;20.05;2.78;;;8.60;99.90;;;;;;5114452;27;20095;-66
2021/12/01 12:35:04;;;;;;;25.55;3.22;;;8.60;99.90;;;;;;5097033;27;20494;-69
2021/12/01 12:37:32;;;;;;;21.80;2.78;;;8.70;99.90;;;;;;5114021;27;20039;-67
2021/12/01 12:40:00;;;;;;;18.33;3.42;;;8.70;99.90;;;;;;5124193;27;20061;-67
2021/12/01 12:42:27;;;;;;;19.23;2.50;;;8.70;99.90;;;;;;5120359;27;20039;-67
2021/12/01 12:44:55;;;;;;;26.58;3.03;;;8.70;99.90;;;;;;5128149;27;20097;-68
2021/12/01 12:47:24;;;;;;;22.52;3.58;;;8.70;99.90;;;;;;5120016;27;20104;-68
2021/12/01 12:49:52;;;;;;;19.10;3.05;;;8.70;99.90;;;;;;5120853;27;20039;-67
2021/12/01 12:52:24;;;;;;;22.25;3.00;;;8.80;99.90;;;;;;5122405;27;20043;-66
2021/12/01 12:55:09;;;;;;;13.65;2.42;;;8.80;99.90;;;;;;5118269;27;20039;-67
2021/12/01 12:57:56;;;;;;;15.18;2.38;;;8.90;99.90;;;;;;5113703;27;20039;-68
2021/12/01 13:00:25;;;;;;;21.88;2.55;;;8.80;99.90;;;;;;5114739;27;20118;-68